sensor_id;sensor_type;location;lat;lon;timestamp;temperature;humidity
47779;DHT22;33538;48.432;11.350;2023-04-03T00:00:05;5.70;89.80
47779;DHT22;33538;48.432;11.350;2023-04-03T00:02:32;5.70;89.90
47779;DHT22;33538;48.432;11.350;2023-04-03T00:04:59;5.70;90.00
47779;DHT22;33538;48.432;11.350;2023-04-03T00:07:26;5.60;89.90
47779;DHT22;33538;48.432;11.350;2023-04-03T00:09:53;5.60;89.40
47779;DHT22;33538;48.432;11.350;2023-04-03T00:12:21;5.60;88.80
47779;DHT22;33538;48.432;11.350;2023-04-03T00:14:47;5.60;89.40
47779;DHT22;33538;48.432;11.350;2023-04-03T00:17:14;5.60;89.30
47779;DHT22;33538;48.432;11.350;2023-04-03T00:19:41;5.70;89.60
47779;DHT22;33538;48.432;11.350;2023-04-03T00:22:08;5.60;90.00
47779;DHT22;33538;48.432;11.350;2023-04-03T00:24:34;5.60;88.80
47779;DHT22;33538;48.432;11.350;2023-04-03T00:27:01;5.60;89.70
47779;DHT22;33538;48.432;11.350;2023-04-03T00:29:29;5.60;89.20
47779;DHT22;33538;48.432;11.350;2023-04-03T00:31:56;5.50;89.00
47779;DHT22;33538;48.432;11.350;2023-04-03T00:34:23;5.50;89.10
47779;DHT22;33538;48.432;11.350;2023-04-03T00:36:49;5.50;88.70
47779;DHT22;33538;48.432;11.350;2023-04-03T00:39:16;5.50;90.10
47779;DHT22;33538;48.432;11.350;2023-04-03T00:41:43;5.50;89.90
47779;DHT22;33538;48.432;11.350;2023-04-03T00:47:09;5.40;89.30
47779;DHT22;33538;48.432;11.350;2023-04-03T00:49:37;5.50;89.60
47779;DHT22;33538;48.432;11.350;2023-04-03T00:52:05;5.40;89.40
47779;DHT22;33538;48.432;11.350;2023-04-03T00:54:35;5.40;89.70
47779;DHT22;33538;48.432;11.350;2023-04-03T00:57:03;5.50;89.90
47779;DHT22;33538;48.432;11.350;2023-04-03T00:59:35;5.50;89.50
47779;DHT22;33538;48.432;11.350;2023-04-03T01:02:02;5.50;89.50
47779;DHT22;33538;48.432;11.350;2023-04-03T01:04:32;5.50;89.50
47779;DHT22;33538;48.432;11.350;2023-04-03T01:07:03;5.50;89.40
47779;DHT22;33538;48.432;11.350;2023-04-03T01:09:31;5.50;89.80
47779;DHT22;33538;48.432;11.350;2023-04-03T01:12:13;5.40;89.30
47779;DHT22;33538;48.432;11.350;2023-04-03T01:14:40;5.40;89.90
47779;DHT22;33538;48.432;11.350;2023-04-03T01:17:28;5.40;89.60
47779;DHT22;33538;48.432;11.350;2023-04-03T01:20:13;5.40;89.90
47779;DHT22;33538;48.432;11.350;2023-04-03T01:22:46;5.40;89.80
47779;DHT22;33538;48.432;11.350;2023-04-03T01:25:17;5.40;89.90
47779;DHT22;33538;48.432;11.350;2023-04-03T01:27:44;5.30;89.50
47779;DHT22;33538;48.432;11.350;2023-04-03T01:30:14;5.40;89.80
47779;DHT22;33538;48.432;11.350;2023-04-03T01:32:44;5.40;89.80
47779;DHT22;33538;48.432;11.350;2023-04-03T01:35:11;5.30;89.60
47779;DHT22;33538;48.432;11.350;2023-04-03T01:37:38;5.30;90.00
47779;DHT22;33538;48.432;11.350;2023-04-03T01:40:06;5.30;90.00
47779;DHT22;33538;48.432;11.350;2023-04-03T01:42:33;5.30;90.30
47779;DHT22;33538;48.432;11.350;2023-04-03T01:45:00;5.30;90.10
47779;DHT22;33538;48.432;11.350;2023-04-03T01:47:26;5.30;90.20
47779;DHT22;33538;48.432;11.350;2023-04-03T01:49:55;5.30;90.30
47779;DHT22;33538;48.432;11.350;2023-04-03T01:52:21;5.40;90.10
47779;DHT22;33538;48.432;11.350;2023-04-03T01:54:48;5.40;90.00
47779;DHT22;33538;48.432;11.350;2023-04-03T01:57:15;5.40;89.60
47779;DHT22;33538;48.432;11.350;2023-04-03T01:59:42;5.30;89.80
47779;DHT22;33538;48.432;11.350;2023-04-03T02:02:08;5.30;89.40
47779;DHT22;33538;48.432;11.350;2023-04-03T02:04:35;5.30;90.10
47779;DHT22;33538;48.432;11.350;2023-04-03T02:07:03;5.30;90.10
47779;DHT22;33538;48.432;11.350;2023-04-03T02:09:30;5.20;90.00
47779;DHT22;33538;48.432;11.350;2023-04-03T02:11:57;5.20;90.30
47779;DHT22;33538;48.432;11.350;2023-04-03T02:14:24;5.20;90.20
47779;DHT22;33538;48.432;11.350;2023-04-03T02:16:50;5.20;90.00
47779;DHT22;33538;48.432;11.350;2023-04-03T02:19:17;5.10;90.30
47779;DHT22;33538;48.432;11.350;2023-04-03T02:21:44;5.10;90.10
47779;DHT22;33538;48.432;11.350;2023-04-03T02:24:12;5.10;90.10
47779;DHT22;33538;48.432;11.350;2023-04-03T02:26:39;5.10;90.50
47779;DHT22;33538;48.432;11.350;2023-04-03T02:29:06;5.20;90.40
47779;DHT22;33538;48.432;11.350;2023-04-03T02:31:33;5.20;90.40
47779;DHT22;33538;48.432;11.350;2023-04-03T02:33:59;5.10;90.30
47779;DHT22;33538;48.432;11.350;2023-04-03T02:36:26;5.10;90.30
47779;DHT22;33538;48.432;11.350;2023-04-03T02:38:53;5.10;90.20
47779;DHT22;33538;48.432;11.350;2023-04-03T02:41:21;5.10;90.00
47779;DHT22;33538;48.432;11.350;2023-04-03T02:43:48;5.00;90.30
47779;DHT22;33538;48.432;11.350;2023-04-03T02:46:15;5.00;90.40
47779;DHT22;33538;48.432;11.350;2023-04-03T02:48:41;5.00;90.50
47779;DHT22;33538;48.432;11.350;2023-04-03T02:51:08;5.10;90.50
47779;DHT22;33538;48.432;11.350;2023-04-03T02:53:35;5.10;90.50
47779;DHT22;33538;48.432;11.350;2023-04-03T02:56:02;5.10;90.30
47779;DHT22;33538;48.432;11.350;2023-04-03T02:58:30;5.10;90.30
47779;DHT22;33538;48.432;11.350;2023-04-03T03:00:57;5.10;90.10
47779;DHT22;33538;48.432;11.350;2023-04-03T03:03:24;5.10;90.40
47779;DHT22;33538;48.432;11.350;2023-04-03T03:06:01;5.00;90.20
47779;DHT22;33538;48.432;11.350;2023-04-03T03:08:27;5.00;90.20
47779;DHT22;33538;48.432;11.350;2023-04-03T03:10:54;5.00;90.60
47779;DHT22;33538;48.432;11.350;2023-04-03T03:13:21;5.00;90.60
47779;DHT22;33538;48.432;11.350;2023-04-03T03:15:49;5.00;90.80
47779;DHT22;33538;48.432;11.350;2023-04-03T03:18:16;5.10;90.60
47779;DHT22;33538;48.432;11.350;2023-04-03T03:20:42;5.00;90.50
47779;DHT22;33538;48.432;11.350;2023-04-03T03:23:09;5.00;90.20
47779;DHT22;33538;48.432;11.350;2023-04-03T03:25:38;5.00;90.60
47779;DHT22;33538;48.432;11.350;2023-04-03T03:28:06;5.00;90.40
47779;DHT22;33538;48.432;11.350;2023-04-03T03:30:33;4.90;90.40
47779;DHT22;33538;48.432;11.350;2023-04-03T03:33:01;5.00;90.80
47779;DHT22;33538;48.432;11.350;2023-04-03T03:35:28;5.00;90.60
47779;DHT22;33538;48.432;11.350;2023-04-03T03:37:54;5.00;90.40
47779;DHT22;33538;48.432;11.350;2023-04-03T03:40:21;5.00;90.50
47779;DHT22;33538;48.432;11.350;2023-04-03T03:42:48;5.00;90.20
47779;DHT22;33538;48.432;11.350;2023-04-03T03:45:15;4.90;90.30
47779;DHT22;33538;48.432;11.350;2023-04-03T03:47:42;4.90;90.70
47779;DHT22;33538;48.432;11.350;2023-04-03T03:50:10;4.80;90.70
47779;DHT22;33538;48.432;11.350;2023-04-03T03:52:37;4.90;90.70
47779;DHT22;33538;48.432;11.350;2023-04-03T03:55:04;4.90;90.80
47779;DHT22;33538;48.432;11.350;2023-04-03T03:57:31;4.80;90.40
47779;DHT22;33538;48.432;11.350;2023-04-03T03:59:58;4.80;90.80
47779;DHT22;33538;48.432;11.350;2023-04-03T04:02:25;4.90;90.70
47779;DHT22;33538;48.432;11.350;2023-04-03T04:04:52;4.90;90.50
47779;DHT22;33538;48.432;11.350;2023-04-03T04:07:20;4.80;90.90
47779;DHT22;33538;48.432;11.350;2023-04-03T04:09:47;4.80;90.90
47779;DHT22;33538;48.432;11.350;2023-04-03T04:12:13;4.80;91.00
47779;DHT22;33538;48.432;11.350;2023-04-03T04:14:40;4.90;91.00
47779;DHT22;33538;48.432;11.350;2023-04-03T04:17:07;4.80;90.80
47779;DHT22;33538;48.432;11.350;2023-04-03T04:19:34;4.80;90.60
47779;DHT22;33538;48.432;11.350;2023-04-03T04:22:01;4.80;90.80
47779;DHT22;33538;48.432;11.350;2023-04-03T04:24:29;4.90;90.80
47779;DHT22;33538;48.432;11.350;2023-04-03T04:26:56;4.90;90.90
47779;DHT22;33538;48.432;11.350;2023-04-03T04:29:23;4.90;90.90
47779;DHT22;33538;48.432;11.350;2023-04-03T04:31:50;4.90;90.80
47779;DHT22;33538;48.432;11.350;2023-04-03T04:34:17;4.90;90.70
47779;DHT22;33538;48.432;11.350;2023-04-03T04:36:44;4.80;90.60
47779;DHT22;33538;48.432;11.350;2023-04-03T04:39:11;4.80;90.60
47779;DHT22;33538;48.432;11.350;2023-04-03T04:41:39;4.80;90.70
47779;DHT22;33538;48.432;11.350;2023-04-03T04:44:05;4.90;90.70
47779;DHT22;33538;48.432;11.350;2023-04-03T04:46:32;4.80;90.80
47779;DHT22;33538;48.432;11.350;2023-04-03T04:48:59;4.80;90.70
47779;DHT22;33538;48.432;11.350;2023-04-03T04:51:26;4.80;90.70
47779;DHT22;33538;48.432;11.350;2023-04-03T04:53:56;4.80;90.90
47779;DHT22;33538;48.432;11.350;2023-04-03T04:56:23;4.80;91.20
47779;DHT22;33538;48.432;11.350;2023-04-03T04:58:51;4.80;90.90
47779;DHT22;33538;48.432;11.350;2023-04-03T05:01:18;4.80;90.80
47779;DHT22;33538;48.432;11.350;2023-04-03T05:03:44;4.80;91.00
47779;DHT22;33538;48.432;11.350;2023-04-03T05:06:11;4.80;91.00
47779;DHT22;33538;48.432;11.350;2023-04-03T05:08:38;4.90;90.90
47779;DHT22;33538;48.432;11.350;2023-04-03T05:11:05;4.70;90.70
47779;DHT22;33538;48.432;11.350;2023-04-03T05:13:31;4.70;91.10
47779;DHT22;33538;48.432;11.350;2023-04-03T05:16:00;4.70;91.20
47779;DHT22;33538;48.432;11.350;2023-04-03T05:18:26;4.70;91.20
47779;DHT22;33538;48.432;11.350;2023-04-03T05:20:53;4.70;91.30
47779;DHT22;33538;48.432;11.350;2023-04-03T05:23:20;4.70;91.30
47779;DHT22;33538;48.432;11.350;2023-04-03T05:25:47;4.70;91.30
47779;DHT22;33538;48.432;11.350;2023-04-03T05:28:14;4.70;91.40
47779;DHT22;33538;48.432;11.350;2023-04-03T05:30:40;4.70;91.30
47779;DHT22;33538;48.432;11.350;2023-04-03T05:33:09;4.70;91.40
47779;DHT22;33538;48.432;11.350;2023-04-03T05:35:36;4.70;91.50
47779;DHT22;33538;48.432;11.350;2023-04-03T05:38:03;4.70;91.50
47779;DHT22;33538;48.432;11.350;2023-04-03T05:40:30;4.70;91.40
47779;DHT22;33538;48.432;11.350;2023-04-03T05:42:57;4.70;91.50
47779;DHT22;33538;48.432;11.350;2023-04-03T05:45:24;4.70;91.50
47779;DHT22;33538;48.432;11.350;2023-04-03T05:47:51;4.70;91.50
47779;DHT22;33538;48.432;11.350;2023-04-03T05:50:19;4.70;91.40
47779;DHT22;33538;48.432;11.350;2023-04-03T05:52:48;4.70;91.50
47779;DHT22;33538;48.432;11.350;2023-04-03T05:55:16;4.70;91.60
47779;DHT22;33538;48.432;11.350;2023-04-03T05:57:42;4.70;91.70
47779;DHT22;33538;48.432;11.350;2023-04-03T06:00:13;4.60;91.80
47779;DHT22;33538;48.432;11.350;2023-04-03T06:02:40;4.70;91.80
47779;DHT22;33538;48.432;11.350;2023-04-03T06:05:08;4.70;91.90
47779;DHT22;33538;48.432;11.350;2023-04-03T06:07:36;4.70;92.30
47779;DHT22;33538;48.432;11.350;2023-04-03T06:10:04;4.70;92.00
47779;DHT22;33538;48.432;11.350;2023-04-03T06:12:31;4.70;91.90
47779;DHT22;33538;48.432;11.350;2023-04-03T06:14:58;4.80;91.90
47779;DHT22;33538;48.432;11.350;2023-04-03T06:17:24;4.70;92.00
47779;DHT22;33538;48.432;11.350;2023-04-03T06:19:51;4.70;92.10
47779;DHT22;33538;48.432;11.350;2023-04-03T06:22:18;4.70;92.10
47779;DHT22;33538;48.432;11.350;2023-04-03T06:24:46;4.60;92.20
47779;DHT22;33538;48.432;11.350;2023-04-03T06:27:13;4.70;92.50
47779;DHT22;33538;48.432;11.350;2023-04-03T06:29:40;4.70;92.50
47779;DHT22;33538;48.432;11.350;2023-04-03T06:32:06;4.70;92.30
47779;DHT22;33538;48.432;11.350;2023-04-03T06:34:33;4.80;92.20
47779;DHT22;33538;48.432;11.350;2023-04-03T06:37:00;4.70;92.30
47779;DHT22;33538;48.432;11.350;2023-04-03T06:39:27;4.80;92.30
47779;DHT22;33538;48.432;11.350;2023-04-03T06:41:55;4.80;92.40
47779;DHT22;33538;48.432;11.350;2023-04-03T06:44:22;4.80;92.50
47779;DHT22;33538;48.432;11.350;2023-04-03T06:46:48;4.80;92.40
47779;DHT22;33538;48.432;11.350;2023-04-03T06:49:15;4.90;92.50
47779;DHT22;33538;48.432;11.350;2023-04-03T06:51:42;4.80;92.40
47779;DHT22;33538;48.432;11.350;2023-04-03T06:54:09;4.80;92.80
47779;DHT22;33538;48.432;11.350;2023-04-03T06:56:36;4.90;92.60
47779;DHT22;33538;48.432;11.350;2023-04-03T06:59:04;4.90;92.80
47779;DHT22;33538;48.432;11.350;2023-04-03T07:01:31;4.80;92.90
47779;DHT22;33538;48.432;11.350;2023-04-03T07:03:58;4.90;92.70
47779;DHT22;33538;48.432;11.350;2023-04-03T07:06:25;4.90;92.60
47779;DHT22;33538;48.432;11.350;2023-04-03T07:08:52;4.80;92.50
47779;DHT22;33538;48.432;11.350;2023-04-03T07:11:18;4.80;92.40
47779;DHT22;33538;48.432;11.350;2023-04-03T07:13:45;4.80;92.40
47779;DHT22;33538;48.432;11.350;2023-04-03T07:16:13;4.80;92.60
47779;DHT22;33538;48.432;11.350;2023-04-03T07:18:40;4.90;92.70
47779;DHT22;33538;48.432;11.350;2023-04-03T07:21:07;4.90;92.20
47779;DHT22;33538;48.432;11.350;2023-04-03T07:23:34;4.90;92.20
47779;DHT22;33538;48.432;11.350;2023-04-03T07:26:00;4.90;92.40
47779;DHT22;33538;48.432;11.350;2023-04-03T07:28:27;4.90;92.60
47779;DHT22;33538;48.432;11.350;2023-04-03T07:31:01;4.90;92.80
47779;DHT22;33538;48.432;11.350;2023-04-03T07:33:30;4.90;92.60
47779;DHT22;33538;48.432;11.350;2023-04-03T07:35:57;5.00;92.50
47779;DHT22;33538;48.432;11.350;2023-04-03T07:38:24;5.00;92.60
47779;DHT22;33538;48.432;11.350;2023-04-03T07:40:51;5.00;92.50
47779;DHT22;33538;48.432;11.350;2023-04-03T07:43:18;4.90;92.80
47779;DHT22;33538;48.432;11.350;2023-04-03T07:45:46;5.00;92.70
47779;DHT22;33538;48.432;11.350;2023-04-03T07:48:13;5.00;92.90
47779;DHT22;33538;48.432;11.350;2023-04-03T07:50:41;5.10;92.90
47779;DHT22;33538;48.432;11.350;2023-04-03T07:53:08;5.10;92.80
47779;DHT22;33538;48.432;11.350;2023-04-03T07:55:35;5.10;92.60
47779;DHT22;33538;48.432;11.350;2023-04-03T07:58:03;5.20;92.60
47779;DHT22;33538;48.432;11.350;2023-04-03T08:00:29;5.20;92.60
47779;DHT22;33538;48.432;11.350;2023-04-03T08:02:56;5.20;92.50
47779;DHT22;33538;48.432;11.350;2023-04-03T08:05:23;5.20;92.40
47779;DHT22;33538;48.432;11.350;2023-04-03T08:07:51;5.20;92.40
47779;DHT22;33538;48.432;11.350;2023-04-03T08:10:18;5.20;92.70
47779;DHT22;33538;48.432;11.350;2023-04-03T08:12:46;5.20;92.60
47779;DHT22;33538;48.432;11.350;2023-04-03T08:15:13;5.20;92.20
47779;DHT22;33538;48.432;11.350;2023-04-03T08:17:40;5.30;92.40
47779;DHT22;33538;48.432;11.350;2023-04-03T08:20:09;5.30;92.10
47779;DHT22;33538;48.432;11.350;2023-04-03T08:22:36;5.20;91.70
47779;DHT22;33538;48.432;11.350;2023-04-03T08:25:05;5.30;92.40
47779;DHT22;33538;48.432;11.350;2023-04-03T08:27:31;5.30;92.00
47779;DHT22;33538;48.432;11.350;2023-04-03T08:30:01;5.20;92.00
47779;DHT22;33538;48.432;11.350;2023-04-03T08:32:28;5.30;92.10
47779;DHT22;33538;48.432;11.350;2023-04-03T08:34:55;5.20;92.00
47779;DHT22;33538;48.432;11.350;2023-04-03T08:37:22;5.20;91.80
47779;DHT22;33538;48.432;11.350;2023-04-03T08:39:49;5.20;92.10
47779;DHT22;33538;48.432;11.350;2023-04-03T08:42:26;5.20;91.80
47779;DHT22;33538;48.432;11.350;2023-04-03T08:45:00;5.20;91.60
47779;DHT22;33538;48.432;11.350;2023-04-03T08:47:33;5.30;91.20
47779;DHT22;33538;48.432;11.350;2023-04-03T08:50:06;5.40;91.60
47779;DHT22;33538;48.432;11.350;2023-04-03T08:52:38;5.30;90.80
47779;DHT22;33538;48.432;11.350;2023-04-03T08:55:13;5.40;91.20
47779;DHT22;33538;48.432;11.350;2023-04-03T08:57:44;5.40;90.80
47779;DHT22;33538;48.432;11.350;2023-04-03T09:00:17;5.40;90.90
47779;DHT22;33538;48.432;11.350;2023-04-03T09:02:46;5.40;91.00
47779;DHT22;33538;48.432;11.350;2023-04-03T09:05:15;5.50;91.10
47779;DHT22;33538;48.432;11.350;2023-04-03T09:07:45;5.50;90.90
47779;DHT22;33538;48.432;11.350;2023-04-03T09:10:19;5.60;90.60
47779;DHT22;33538;48.432;11.350;2023-04-03T09:12:57;5.50;90.10
47779;DHT22;33538;48.432;11.350;2023-04-03T09:15:26;5.50;90.30
47779;DHT22;33538;48.432;11.350;2023-04-03T09:18:12;5.50;90.50
47779;DHT22;33538;48.432;11.350;2023-04-03T09:20:45;5.60;90.60
47779;DHT22;33538;48.432;11.350;2023-04-03T09:23:20;5.60;90.40
47779;DHT22;33538;48.432;11.350;2023-04-03T09:25:51;5.60;90.60
47779;DHT22;33538;48.432;11.350;2023-04-03T09:28:20;5.60;90.30
47779;DHT22;33538;48.432;11.350;2023-04-03T09:30:47;5.50;90.00
47779;DHT22;33538;48.432;11.350;2023-04-03T09:33:14;5.50;89.70
47779;DHT22;33538;48.432;11.350;2023-04-03T09:35:42;5.50;89.40
47779;DHT22;33538;48.432;11.350;2023-04-03T09:38:20;5.50;90.40
47779;DHT22;33538;48.432;11.350;2023-04-03T09:40:49;5.50;90.60
47779;DHT22;33538;48.432;11.350;2023-04-03T09:43:23;5.50;90.00
47779;DHT22;33538;48.432;11.350;2023-04-03T09:45:51;5.50;90.00
47779;DHT22;33538;48.432;11.350;2023-04-03T09:48:20;5.50;90.40
47779;DHT22;33538;48.432;11.350;2023-04-03T09:50:56;5.50;90.30
47779;DHT22;33538;48.432;11.350;2023-04-03T09:53:28;5.50;88.90
47779;DHT22;33538;48.432;11.350;2023-04-03T09:55:55;5.40;89.90
47779;DHT22;33538;48.432;11.350;2023-04-03T09:58:26;5.30;89.30
47779;DHT22;33538;48.432;11.350;2023-04-03T10:01:05;5.20;89.90
47779;DHT22;33538;48.432;11.350;2023-04-03T10:03:33;5.30;91.10
47779;DHT22;33538;48.432;11.350;2023-04-03T10:06:01;5.30;90.50
47779;DHT22;33538;48.432;11.350;2023-04-03T10:08:30;5.30;90.90
47779;DHT22;33538;48.432;11.350;2023-04-03T10:11:15;5.30;90.70
47779;DHT22;33538;48.432;11.350;2023-04-03T10:13:56;5.30;90.30
47779;DHT22;33538;48.432;11.350;2023-04-03T10:16:31;5.20;89.30
47779;DHT22;33538;48.432;11.350;2023-04-03T10:19:14;5.30;89.80
47779;DHT22;33538;48.432;11.350;2023-04-03T10:21:46;5.30;89.50
47779;DHT22;33538;48.432;11.350;2023-04-03T10:24:18;5.40;90.00
47779;DHT22;33538;48.432;11.350;2023-04-03T10:26:54;5.40;88.90
47779;DHT22;33538;48.432;11.350;2023-04-03T10:29:38;5.40;88.60
47779;DHT22;33538;48.432;11.350;2023-04-03T10:32:24;5.50;87.50
47779;DHT22;33538;48.432;11.350;2023-04-03T10:34:57;5.50;88.20
47779;DHT22;33538;48.432;11.350;2023-04-03T10:37:36;5.50;87.30
47779;DHT22;33538;48.432;11.350;2023-04-03T10:40:24;5.60;87.60
47779;DHT22;33538;48.432;11.350;2023-04-03T10:43:01;5.60;87.20
47779;DHT22;33538;48.432;11.350;2023-04-03T10:45:32;5.60;86.50
47779;DHT22;33538;48.432;11.350;2023-04-03T10:48:05;5.60;85.10
47779;DHT22;33538;48.432;11.350;2023-04-03T10:50:43;5.60;85.10
47779;DHT22;33538;48.432;11.350;2023-04-03T10:53:13;5.60;84.80
47779;DHT22;33538;48.432;11.350;2023-04-03T10:55:48;5.70;85.20
47779;DHT22;33538;48.432;11.350;2023-04-03T10:58:24;5.70;86.00
47779;DHT22;33538;48.432;11.350;2023-04-03T11:00:55;5.70;84.80
47779;DHT22;33538;48.432;11.350;2023-04-03T11:03:29;5.70;84.10
47779;DHT22;33538;48.432;11.350;2023-04-03T11:05:59;5.80;84.60
47779;DHT22;33538;48.432;11.350;2023-04-03T11:08:30;5.80;83.80
47779;DHT22;33538;48.432;11.350;2023-04-03T11:11:01;5.80;84.50
47779;DHT22;33538;48.432;11.350;2023-04-03T11:13:34;5.80;84.20
47779;DHT22;33538;48.432;11.350;2023-04-03T11:16:04;5.80;84.50
47779;DHT22;33538;48.432;11.350;2023-04-03T11:18:35;5.80;84.10
47779;DHT22;33538;48.432;11.350;2023-04-03T11:21:08;5.90;84.90
47779;DHT22;33538;48.432;11.350;2023-04-03T11:23:38;5.90;84.50
47779;DHT22;33538;48.432;11.350;2023-04-03T11:26:16;5.90;84.00
47779;DHT22;33538;48.432;11.350;2023-04-03T11:28:44;6.00;85.20
47779;DHT22;33538;48.432;11.350;2023-04-03T11:31:26;6.00;83.00
47779;DHT22;33538;48.432;11.350;2023-04-03T11:34:01;6.00;83.60
47779;DHT22;33538;48.432;11.350;2023-04-03T11:36:33;6.00;83.90
47779;DHT22;33538;48.432;11.350;2023-04-03T11:39:15;6.00;82.80
47779;DHT22;33538;48.432;11.350;2023-04-03T11:41:44;6.00;81.70
47779;DHT22;33538;48.432;11.350;2023-04-03T11:44:30;6.10;82.50
47779;DHT22;33538;48.432;11.350;2023-04-03T11:46:59;6.10;83.00
47779;DHT22;33538;48.432;11.350;2023-04-03T11:49:58;6.20;83.10
47779;DHT22;33538;48.432;11.350;2023-04-03T11:52:56;6.20;83.40
47779;DHT22;33538;48.432;11.350;2023-04-03T11:55:53;6.20;81.00
47779;DHT22;33538;48.432;11.350;2023-04-03T11:58:23;6.30;83.10
47779;DHT22;33538;48.432;11.350;2023-04-03T12:01:04;6.30;83.40
47779;DHT22;33538;48.432;11.350;2023-04-03T12:06:41;6.30;83.00
47779;DHT22;33538;48.432;11.350;2023-04-03T12:09:23;6.40;81.70
47779;DHT22;33538;48.432;11.350;2023-04-03T12:11:51;6.40;82.60
47779;DHT22;33538;48.432;11.350;2023-04-03T12:14:18;6.40;81.70
47779;DHT22;33538;48.432;11.350;2023-04-03T12:16:48;6.40;82.50
47779;DHT22;33538;48.432;11.350;2023-04-03T12:19:34;6.50;81.50
47779;DHT22;33538;48.432;11.350;2023-04-03T12:22:13;6.50;82.70
47779;DHT22;33538;48.432;11.350;2023-04-03T12:24:42;6.60;79.90
47779;DHT22;33538;48.432;11.350;2023-04-03T12:27:34;6.60;80.10
47779;DHT22;33538;48.432;11.350;2023-04-03T12:30:15;6.60;79.90
47779;DHT22;33538;48.432;11.350;2023-04-03T12:33:02;6.60;81.40
47779;DHT22;33538;48.432;11.350;2023-04-03T12:35:44;6.60;82.60
47779;DHT22;33538;48.432;11.350;2023-04-03T12:38:32;6.60;82.40
47779;DHT22;33538;48.432;11.350;2023-04-03T12:41:17;6.60;81.10
47779;DHT22;33538;48.432;11.350;2023-04-03T12:43:59;6.70;79.30
47779;DHT22;33538;48.432;11.350;2023-04-03T12:46:35;6.70;80.40
47779;DHT22;33538;48.432;11.350;2023-04-03T12:49:02;6.60;77.10
47779;DHT22;33538;48.432;11.350;2023-04-03T12:51:43;6.60;79.50
47779;DHT22;33538;48.432;11.350;2023-04-03T12:54:14;6.60;79.70
47779;DHT22;33538;48.432;11.350;2023-04-03T12:56:42;6.60;80.70
47779;DHT22;33538;48.432;11.350;2023-04-03T12:59:14;6.60;80.00
47779;DHT22;33538;48.432;11.350;2023-04-03T13:01:42;6.50;77.40
47779;DHT22;33538;48.432;11.350;2023-04-03T13:04:11;6.60;79.40
47779;DHT22;33538;48.432;11.350;2023-04-03T13:06:41;6.60;79.10
47779;DHT22;33538;48.432;11.350;2023-04-03T13:09:19;6.50;77.50
47779;DHT22;33538;48.432;11.350;2023-04-03T13:11:46;6.50;80.30
47779;DHT22;33538;48.432;11.350;2023-04-03T13:14:17;6.50;76.10
47779;DHT22;33538;48.432;11.350;2023-04-03T13:16:53;6.50;75.30
47779;DHT22;33538;48.432;11.350;2023-04-03T13:19:20;6.50;74.20
47779;DHT22;33538;48.432;11.350;2023-04-03T13:21:48;6.50;76.30
47779;DHT22;33538;48.432;11.350;2023-04-03T13:24:15;6.50;76.80
47779;DHT22;33538;48.432;11.350;2023-04-03T13:26:43;6.50;75.10
47779;DHT22;33538;48.432;11.350;2023-04-03T13:29:21;6.50;76.30
47779;DHT22;33538;48.432;11.350;2023-04-03T13:31:57;6.40;73.30
47779;DHT22;33538;48.432;11.350;2023-04-03T13:34:26;6.50;76.60
47779;DHT22;33538;48.432;11.350;2023-04-03T13:36:59;6.50;76.50
47779;DHT22;33538;48.432;11.350;2023-04-03T13:39:27;6.40;74.60
47779;DHT22;33538;48.432;11.350;2023-04-03T13:41:57;6.40;72.90
47779;DHT22;33538;48.432;11.350;2023-04-03T13:44:31;6.40;70.70
47779;DHT22;33538;48.432;11.350;2023-04-03T13:47:00;6.50;72.90
47779;DHT22;33538;48.432;11.350;2023-04-03T13:49:31;6.40;71.30
47779;DHT22;33538;48.432;11.350;2023-04-03T13:52:02;6.40;73.30
47779;DHT22;33538;48.432;11.350;2023-04-03T13:54:36;6.50;72.50
47779;DHT22;33538;48.432;11.350;2023-04-03T13:57:11;6.50;71.10
47779;DHT22;33538;48.432;11.350;2023-04-03T13:59:39;6.50;73.00
47779;DHT22;33538;48.432;11.350;2023-04-03T14:02:16;6.50;73.10
47779;DHT22;33538;48.432;11.350;2023-04-03T14:04:52;6.50;69.90
47779;DHT22;33538;48.432;11.350;2023-04-03T14:07:21;6.50;72.40
47779;DHT22;33538;48.432;11.350;2023-04-03T14:09:48;6.60;71.50
47779;DHT22;33538;48.432;11.350;2023-04-03T14:12:17;6.60;73.20
47779;DHT22;33538;48.432;11.350;2023-04-03T14:14:57;6.60;69.70
47779;DHT22;33538;48.432;11.350;2023-04-03T14:17:25;6.60;70.60
47779;DHT22;33538;48.432;11.350;2023-04-03T14:19:53;6.60;71.00
47779;DHT22;33538;48.432;11.350;2023-04-03T14:22:23;6.50;70.80
47779;DHT22;33538;48.432;11.350;2023-04-03T14:24:51;6.50;72.30
47779;DHT22;33538;48.432;11.350;2023-04-03T14:27:20;6.50;71.00
47779;DHT22;33538;48.432;11.350;2023-04-03T14:29:50;6.60;71.80
47779;DHT22;33538;48.432;11.350;2023-04-03T14:32:19;6.50;70.50
47779;DHT22;33538;48.432;11.350;2023-04-03T14:34:47;6.50;68.80
47779;DHT22;33538;48.432;11.350;2023-04-03T14:37:16;6.60;70.10
47779;DHT22;33538;48.432;11.350;2023-04-03T14:39:45;6.60;71.20
47779;DHT22;33538;48.432;11.350;2023-04-03T14:42:14;6.50;70.20
47779;DHT22;33538;48.432;11.350;2023-04-03T14:44:41;6.50;67.70
47779;DHT22;33538;48.432;11.350;2023-04-03T14:47:10;6.60;70.80
47779;DHT22;33538;48.432;11.350;2023-04-03T14:49:53;6.50;71.70
47779;DHT22;33538;48.432;11.350;2023-04-03T14:52:22;6.50;69.00
47779;DHT22;33538;48.432;11.350;2023-04-03T14:54:52;6.50;69.50
47779;DHT22;33538;48.432;11.350;2023-04-03T14:57:19;6.50;70.40
47779;DHT22;33538;48.432;11.350;2023-04-03T14:59:46;6.50;70.50
47779;DHT22;33538;48.432;11.350;2023-04-03T15:02:31;6.60;69.20
47779;DHT22;33538;48.432;11.350;2023-04-03T15:05:00;6.60;67.60
47779;DHT22;33538;48.432;11.350;2023-04-03T15:07:28;6.60;69.40
47779;DHT22;33538;48.432;11.350;2023-04-03T15:09:57;6.60;68.20
47779;DHT22;33538;48.432;11.350;2023-04-03T15:12:25;6.60;66.70
47779;DHT22;33538;48.432;11.350;2023-04-03T15:14:51;6.60;68.10
47779;DHT22;33538;48.432;11.350;2023-04-03T15:17:28;6.60;68.50
47779;DHT22;33538;48.432;11.350;2023-04-03T15:19:55;6.60;67.70
47779;DHT22;33538;48.432;11.350;2023-04-03T15:22:22;6.60;69.10
47779;DHT22;33538;48.432;11.350;2023-04-03T15:24:49;6.60;69.30
47779;DHT22;33538;48.432;11.350;2023-04-03T15:27:17;6.60;70.20
47779;DHT22;33538;48.432;11.350;2023-04-03T15:29:44;6.70;70.10
47779;DHT22;33538;48.432;11.350;2023-04-03T15:32:12;6.70;70.20
47779;DHT22;33538;48.432;11.350;2023-04-03T15:34:39;6.70;70.70
47779;DHT22;33538;48.432;11.350;2023-04-03T15:37:06;6.70;70.70
47779;DHT22;33538;48.432;11.350;2023-04-03T15:39:33;6.70;70.20
47779;DHT22;33538;48.432;11.350;2023-04-03T15:42:00;6.80;70.60
47779;DHT22;33538;48.432;11.350;2023-04-03T15:44:28;6.80;71.30
47779;DHT22;33538;48.432;11.350;2023-04-03T15:46:54;6.80;71.50
47779;DHT22;33538;48.432;11.350;2023-04-03T15:49:21;6.80;71.00
47779;DHT22;33538;48.432;11.350;2023-04-03T15:51:48;6.80;70.80